sensor_id;sensor_type;location;lat;lon;timestamp;pressure;altitude;pressure_sealevel;temperature;humidity
78888;BME280;68276;49.326;8.690;2023-03-17T00:01:41;99950.66;;;7.43;58.41
78888;BME280;68276;49.326;8.690;2023-03-17T00:04:11;99956.84;;;7.44;58.36
78888;BME280;68276;49.326;8.690;2023-03-17T00:06:37;99953.34;;;7.43;59.02
78888;BME280;68276;49.326;8.690;2023-03-17T00:09:09;99944.84;;;7.40;58.41
78888;BME280;68276;49.326;8.690;2023-03-17T00:11:36;99940.81;;;7.44;58.49
78888;BME280;68276;49.326;8.690;2023-03-17T00:14:01;99950.84;;;7.42;58.62
78888;BME280;68276;49.326;8.690;2023-03-17T00:16:30;99944.16;;;7.46;58.33
78888;BME280;68276;49.326;8.690;2023-03-17T00:18:59;99945.31;;;7.51;58.60
78888;BME280;68276;49.326;8.690;2023-03-17T00:21:32;99955.81;;;7.53;58.17
78888;BME280;68276;49.326;8.690;2023-03-17T00:34:03;99943.00;;;7.71;56.79
78888;BME280;68276;49.326;8.690;2023-03-17T00:36:31;99955.69;;;7.69;57.15
78888;BME280;68276;49.326;8.690;2023-03-17T00:38:58;99943.72;;;7.65;57.40
78888;BME280;68276;49.326;8.690;2023-03-17T00:41:24;99950.19;;;7.70;56.81
78888;BME280;68276;49.326;8.690;2023-03-17T00:43:51;99938.47;;;7.71;57.14
78888;BME280;68276;49.326;8.690;2023-03-17T00:46:27;99950.81;;;7.80;56.68
78888;BME280;68276;49.326;8.690;2023-03-17T00:49:03;99942.91;;;7.87;56.47
78888;BME280;68276;49.326;8.690;2023-03-17T00:51:34;99939.69;;;7.91;56.17
78888;BME280;68276;49.326;8.690;2023-03-17T00:54:00;99944.72;;;7.86;55.58
78888;BME280;68276;49.326;8.690;2023-03-17T00:56:25;99949.41;;;7.84;56.46
78888;BME280;68276;49.326;8.690;2023-03-17T00:58:51;99931.84;;;7.90;55.43
78888;BME280;68276;49.326;8.690;2023-03-17T01:01:16;99932.75;;;7.82;56.04
78888;BME280;68276;49.326;8.690;2023-03-17T01:03:42;99924.06;;;7.80;56.00
78888;BME280;68276;49.326;8.690;2023-03-17T01:06:10;99934.09;;;7.78;56.23
78888;BME280;68276;49.326;8.690;2023-03-17T01:08:37;99932.44;;;7.77;56.46
78888;BME280;68276;49.326;8.690;2023-03-17T01:11:03;99931.97;;;7.74;56.67
78888;BME280;68276;49.326;8.690;2023-03-17T01:13:28;99926.44;;;7.75;55.95
78888;BME280;68276;49.326;8.690;2023-03-17T01:15:54;99924.94;;;7.73;56.30
78888;BME280;68276;49.326;8.690;2023-03-17T01:18:21;99932.44;;;7.77;56.70
78888;BME280;68276;49.326;8.690;2023-03-17T01:20:47;99921.75;;;7.77;56.52
78888;BME280;68276;49.326;8.690;2023-03-17T01:23:13;99916.41;;;7.77;56.51
78888;BME280;68276;49.326;8.690;2023-03-17T01:25:40;99929.28;;;7.74;56.38
78888;BME280;68276;49.326;8.690;2023-03-17T01:28:09;99917.22;;;7.78;56.59
78888;BME280;68276;49.326;8.690;2023-03-17T01:30:37;99916.03;;;7.80;55.82
78888;BME280;68276;49.326;8.690;2023-03-17T01:33:04;99917.31;;;7.84;56.06
78888;BME280;68276;49.326;8.690;2023-03-17T01:35:31;99917.31;;;7.84;55.93
78888;BME280;68276;49.326;8.690;2023-03-17T01:37:57;99913.38;;;7.80;56.43
78888;BME280;68276;49.326;8.690;2023-03-17T01:40:26;99906.34;;;7.79;55.98
78888;BME280;68276;49.326;8.690;2023-03-17T01:42:57;99892.63;;;7.82;55.74
78888;BME280;68276;49.326;8.690;2023-03-17T01:48:28;99886.56;;;7.66;56.35
78888;BME280;68276;49.326;8.690;2023-03-17T01:50:56;99876.69;;;7.66;56.84
78888;BME280;68276;49.326;8.690;2023-03-17T01:53:22;99882.41;;;7.63;57.13
78888;BME280;68276;49.326;8.690;2023-03-17T01:55:49;99889.03;;;7.67;56.45
78888;BME280;68276;49.326;8.690;2023-03-17T01:58:17;99873.72;;;7.61;56.58
78888;BME280;68276;49.326;8.690;2023-03-17T02:00:45;99886.44;;;7.59;57.14
78888;BME280;68276;49.326;8.690;2023-03-17T02:03:10;99883.09;;;7.57;56.70
78888;BME280;68276;49.326;8.690;2023-03-17T02:05:37;99873.25;;;7.58;57.08
78888;BME280;68276;49.326;8.690;2023-03-17T02:08:10;99861.72;;;7.57;57.08
78888;BME280;68276;49.326;8.690;2023-03-17T02:10:35;99858.53;;;7.62;58.02
78888;BME280;68276;49.326;8.690;2023-03-17T02:13:03;99849.66;;;7.61;56.63
78888;BME280;68276;49.326;8.690;2023-03-17T02:18:01;99867.72;;;7.59;56.64
78888;BME280;68276;49.326;8.690;2023-03-17T02:22:52;99867.78;;;7.51;57.55
78888;BME280;68276;49.326;8.690;2023-03-17T02:25:20;99864.38;;;7.57;57.44
78888;BME280;68276;49.326;8.690;2023-03-17T02:27:52;99862.56;;;7.58;57.14
78888;BME280;68276;49.326;8.690;2023-03-17T02:30:22;99862.91;;;7.55;56.78
78888;BME280;68276;49.326;8.690;2023-03-17T02:32:48;99863.44;;;7.50;57.13
78888;BME280;68276;49.326;8.690;2023-03-17T02:35:15;99868.97;;;7.49;57.10
78888;BME280;68276;49.326;8.690;2023-03-17T02:37:40;99841.75;;;7.45;57.50
78888;BME280;68276;49.326;8.690;2023-03-17T02:40:09;99836.97;;;7.41;57.39
78888;BME280;68276;49.326;8.690;2023-03-17T02:42:35;99850.50;;;7.39;57.79
78888;BME280;68276;49.326;8.690;2023-03-17T02:45:07;99855.47;;;7.42;57.42
78888;BME280;68276;49.326;8.690;2023-03-17T02:47:33;99863.19;;;7.37;57.17
78888;BME280;68276;49.326;8.690;2023-03-17T02:49:59;99868.25;;;7.32;57.70
78888;BME280;68276;49.326;8.690;2023-03-17T02:52:25;99866.06;;;7.28;57.92
78888;BME280;68276;49.326;8.690;2023-03-17T02:54:51;99868.09;;;7.26;58.30
78888;BME280;68276;49.326;8.690;2023-03-17T02:57:16;99879.63;;;7.26;58.01
78888;BME280;68276;49.326;8.690;2023-03-17T02:59:42;99877.31;;;7.23;58.44
78888;BME280;68276;49.326;8.690;2023-03-17T03:02:07;99872.47;;;7.19;57.92
78888;BME280;68276;49.326;8.690;2023-03-17T03:04:33;99876.69;;;7.13;58.45
78888;BME280;68276;49.326;8.690;2023-03-17T03:06:59;99867.97;;;7.19;58.84
78888;BME280;68276;49.326;8.690;2023-03-17T03:09:24;99867.59;;;7.22;58.33
78888;BME280;68276;49.326;8.690;2023-03-17T03:11:50;99856.63;;;7.17;58.69
78888;BME280;68276;49.326;8.690;2023-03-17T03:14:16;99850.22;;;7.26;57.30
78888;BME280;68276;49.326;8.690;2023-03-17T03:16:41;99849.94;;;7.21;57.74
78888;BME280;68276;49.326;8.690;2023-03-17T03:19:07;99853.28;;;7.15;58.13
78888;BME280;68276;49.326;8.690;2023-03-17T03:21:33;99856.44;;;7.19;58.43
78888;BME280;68276;49.326;8.690;2023-03-17T03:23:59;99849.63;;;7.16;57.79
78888;BME280;68276;49.326;8.690;2023-03-17T03:26:24;99854.47;;;7.13;57.89
78888;BME280;68276;49.326;8.690;2023-03-17T03:28:50;99838.50;;;7.05;59.15
78888;BME280;68276;49.326;8.690;2023-03-17T03:31:16;99843.84;;;7.05;58.78
78888;BME280;68276;49.326;8.690;2023-03-17T03:33:41;99837.31;;;7.07;58.05
78888;BME280;68276;49.326;8.690;2023-03-17T03:36:07;99840.03;;;6.99;59.28
78888;BME280;68276;49.326;8.690;2023-03-17T03:38:34;99841.31;;;7.03;58.66
78888;BME280;68276;49.326;8.690;2023-03-17T03:40:59;99823.66;;;7.02;58.61
78888;BME280;68276;49.326;8.690;2023-03-17T03:43:24;99838.34;;;6.98;58.99
78888;BME280;68276;49.326;8.690;2023-03-17T03:45:50;99834.69;;;6.99;59.31
78888;BME280;68276;49.326;8.690;2023-03-17T03:48:16;99828.34;;;7.00;58.51
78888;BME280;68276;49.326;8.690;2023-03-17T03:50:41;99836.53;;;6.98;58.99
78888;BME280;68276;49.326;8.690;2023-03-17T03:53:07;99829.56;;;6.89;59.42
78888;BME280;68276;49.326;8.690;2023-03-17T03:55:32;99835.06;;;6.88;59.39
78888;BME280;68276;49.326;8.690;2023-03-17T03:57:57;99843.44;;;6.85;59.54
78888;BME280;68276;49.326;8.690;2023-03-17T04:00:23;99844.09;;;6.87;59.88
78888;BME280;68276;49.326;8.690;2023-03-17T04:02:48;99832.44;;;6.80;59.39
78888;BME280;68276;49.326;8.690;2023-03-17T04:05:15;99832.78;;;6.77;60.08
78888;BME280;68276;49.326;8.690;2023-03-17T04:07:42;99832.13;;;6.75;59.92
78888;BME280;68276;49.326;8.690;2023-03-17T04:10:11;99815.75;;;6.78;59.85
78888;BME280;68276;49.326;8.690;2023-03-17T04:12:37;99819.91;;;6.80;59.67
78888;BME280;68276;49.326;8.690;2023-03-17T04:15:05;99831.13;;;6.76;60.18
78888;BME280;68276;49.326;8.690;2023-03-17T04:17:31;99824.06;;;6.83;59.48
78888;BME280;68276;49.326;8.690;2023-03-17T04:19:57;99832.44;;;6.80;59.74
78888;BME280;68276;49.326;8.690;2023-03-17T04:22:22;99832.44;;;6.80;59.94
78888;BME280;68276;49.326;8.690;2023-03-17T04:24:48;99847.78;;;6.78;59.86
78888;BME280;68276;49.326;8.690;2023-03-17T04:27:14;99837.47;;;6.75;59.16
78888;BME280;68276;49.326;8.690;2023-03-17T04:29:40;99837.78;;;6.80;59.28
78888;BME280;68276;49.326;8.690;2023-03-17T04:32:07;99830.59;;;6.80;59.02
78888;BME280;68276;49.326;8.690;2023-03-17T04:34:32;99832.63;;;6.78;59.26
78888;BME280;68276;49.326;8.690;2023-03-17T04:36:58;99833.59;;;6.77;59.88
78888;BME280;68276;49.326;8.690;2023-03-17T04:39:23;99824.44;;;6.80;59.11
78888;BME280;68276;49.326;8.690;2023-03-17T04:41:49;99827.59;;;6.75;59.25
78888;BME280;68276;49.326;8.690;2023-03-17T04:44:14;99831.13;;;6.76;59.00
78888;BME280;68276;49.326;8.690;2023-03-17T04:46:40;99837.13;;;6.78;59.26
78888;BME280;68276;49.326;8.690;2023-03-17T04:49:06;99826.25;;;6.79;58.84
78888;BME280;68276;49.326;8.690;2023-03-17T04:51:31;99823.41;;;6.81;58.85
78888;BME280;68276;49.326;8.690;2023-03-17T04:53:57;99826.09;;;6.81;59.11
78888;BME280;68276;49.326;8.690;2023-03-17T04:56:22;99822.44;;;6.82;58.86
78888;BME280;68276;49.326;8.690;2023-03-17T04:58:48;99816.78;;;6.77;59.25
78888;BME280;68276;49.326;8.690;2023-03-17T05:01:13;99824.13;;;6.75;59.20
78888;BME280;68276;49.326;8.690;2023-03-17T05:03:38;99830.28;;;6.75;59.38
78888;BME280;68276;49.326;8.690;2023-03-17T05:06:04;99834.50;;;6.70;59.76
78888;BME280;68276;49.326;8.690;2023-03-17T05:08:30;99835.63;;;6.75;59.39
78888;BME280;68276;49.326;8.690;2023-03-17T05:10:57;99851.81;;;6.74;59.22
78888;BME280;68276;49.326;8.690;2023-03-17T05:13:23;99844.81;;;6.65;59.64
78888;BME280;68276;49.326;8.690;2023-03-17T05:15:51;99846.81;;;6.71;59.41
78888;BME280;68276;49.326;8.690;2023-03-17T05:18:18;99843.50;;;6.69;59.63
78888;BME280;68276;49.326;8.690;2023-03-17T05:20:44;99846.66;;;6.72;59.61
78888;BME280;68276;49.326;8.690;2023-03-17T05:23:09;99851.00;;;6.73;59.21
78888;BME280;68276;49.326;8.690;2023-03-17T05:25:35;99854.47;;;6.74;59.70
78888;BME280;68276;49.326;8.690;2023-03-17T05:28:01;99853.81;;;6.72;59.86
78888;BME280;68276;49.326;8.690;2023-03-17T05:30:26;99853.81;;;6.72;59.18
78888;BME280;68276;49.326;8.690;2023-03-17T05:32:52;99868.00;;;6.72;58.99
78888;BME280;68276;49.326;8.690;2023-03-17T05:35:18;99866.84;;;6.75;59.38
78888;BME280;68276;49.326;8.690;2023-03-17T05:37:43;99860.53;;;6.68;59.74
78888;BME280;68276;49.326;8.690;2023-03-17T05:40:11;99860.00;;;6.72;59.42
78888;BME280;68276;49.326;8.690;2023-03-17T05:42:37;99864.00;;;6.68;59.68
78888;BME280;68276;49.326;8.690;2023-03-17T05:45:04;99877.34;;;6.68;59.54
78888;BME280;68276;49.326;8.690;2023-03-17T05:47:30;99882.38;;;6.71;59.45
78888;BME280;68276;49.326;8.690;2023-03-17T05:49:57;99883.84;;;6.74;59.23
78888;BME280;68276;49.326;8.690;2023-03-17T05:52:22;99889.84;;;6.76;59.34
78888;BME280;68276;49.326;8.690;2023-03-17T05:54:47;99896.38;;;6.73;59.23
78888;BME280;68276;49.326;8.690;2023-03-17T05:57:14;99893.72;;;6.73;58.94
78888;BME280;68276;49.326;8.690;2023-03-17T05:59:40;99877.97;;;6.86;58.19
78888;BME280;68276;49.326;8.690;2023-03-17T06:02:07;99883.34;;;6.78;58.97
78888;BME280;68276;49.326;8.690;2023-03-17T06:04:32;99877.69;;;6.73;59.10
78888;BME280;68276;49.326;8.690;2023-03-17T06:06:58;99874.97;;;6.81;59.35
78888;BME280;68276;49.326;8.690;2023-03-17T06:09:24;99869.78;;;6.88;58.84
78888;BME280;68276;49.326;8.690;2023-03-17T06:11:49;99873.47;;;6.87;58.89
78888;BME280;68276;49.326;8.690;2023-03-17T06:14:14;99876.13;;;6.87;59.00
78888;BME280;68276;49.326;8.690;2023-03-17T06:16:40;99861.25;;;6.92;58.69
78888;BME280;68276;49.326;8.690;2023-03-17T06:19:06;99870.13;;;6.85;59.21
78888;BME280;68276;49.326;8.690;2023-03-17T06:21:31;99867.09;;;6.96;58.19
78888;BME280;68276;49.326;8.690;2023-03-17T06:23:58;99873.25;;;6.96;58.03
78888;BME280;68276;49.326;8.690;2023-03-17T06:26:24;99871.72;;;7.02;58.86
78888;BME280;68276;49.326;8.690;2023-03-17T06:28:50;99868.91;;;6.95;58.91
78888;BME280;68276;49.326;8.690;2023-03-17T06:31:15;99870.56;;;6.96;58.25
78888;BME280;68276;49.326;8.690;2023-03-17T06:33:42;99871.41;;;6.97;58.16
78888;BME280;68276;49.326;8.690;2023-03-17T06:36:08;99865.91;;;6.98;58.75
78888;BME280;68276;49.326;8.690;2023-03-17T06:38:33;99865.03;;;7.06;58.11
78888;BME280;68276;49.326;8.690;2023-03-17T06:40:59;99855.66;;;7.10;57.98
78888;BME280;68276;49.326;8.690;2023-03-17T06:43:24;99866.50;;;7.17;58.03
78888;BME280;68276;49.326;8.690;2023-03-17T06:45:50;99868.44;;;7.23;57.58
78888;BME280;68276;49.326;8.690;2023-03-17T06:48:17;99866.78;;;7.22;57.75
78888;BME280;68276;49.326;8.690;2023-03-17T06:50:42;99870.13;;;7.24;57.70
78888;BME280;68276;49.326;8.690;2023-03-17T06:53:07;99870.91;;;7.32;57.42
78888;BME280;68276;49.326;8.690;2023-03-17T06:55:33;99866.84;;;7.36;57.02
78888;BME280;68276;49.326;8.690;2023-03-17T06:57:58;99867.34;;;7.40;57.28
78888;BME280;68276;49.326;8.690;2023-03-17T07:00:25;99881.84;;;7.45;57.33
78888;BME280;68276;49.326;8.690;2023-03-17T07:02:51;99879.09;;;7.53;57.00
78888;BME280;68276;49.326;8.690;2023-03-17T07:05:17;99882.75;;;7.60;56.78
78888;BME280;68276;49.326;8.690;2023-03-17T07:07:42;99889.03;;;7.67;56.12
78888;BME280;68276;49.326;8.690;2023-03-17T07:10:09;99885.50;;;7.75;55.92
78888;BME280;68276;49.326;8.690;2023-03-17T07:12:35;99882.22;;;7.87;56.17
78888;BME280;68276;49.326;8.690;2023-03-17T07:15:01;99887.03;;;7.92;55.48
78888;BME280;68276;49.326;8.690;2023-03-17T07:17:27;99886.38;;;7.90;55.35
78888;BME280;68276;49.326;8.690;2023-03-17T07:19:54;99890.84;;;7.97;55.65
78888;BME280;68276;49.326;8.690;2023-03-17T07:22:19;99887.97;;;7.99;55.28
78888;BME280;68276;49.326;8.690;2023-03-17T07:24:45;99883.81;;;7.96;55.51
78888;BME280;68276;49.326;8.690;2023-03-17T07:27:13;99885.50;;;7.97;55.84
78888;BME280;68276;49.326;8.690;2023-03-17T07:29:38;99875.25;;;8.01;55.55
78888;BME280;68276;49.326;8.690;2023-03-17T07:32:04;99871.22;;;8.05;55.28
78888;BME280;68276;49.326;8.690;2023-03-17T07:34:32;99875.72;;;8.04;55.18
78888;BME280;68276;49.326;8.690;2023-03-17T07:36:57;99871.94;;;7.99;55.33
78888;BME280;68276;49.326;8.690;2023-03-17T07:39:23;99879.47;;;7.95;55.49
78888;BME280;68276;49.326;8.690;2023-03-17T07:41:49;99877.84;;;7.94;55.86
78888;BME280;68276;49.326;8.690;2023-03-17T07:44:19;99874.50;;;7.92;55.88
78888;BME280;68276;49.326;8.690;2023-03-17T07:46:45;99884.81;;;7.95;55.31
78888;BME280;68276;49.326;8.690;2023-03-17T07:49:11;99887.97;;;7.99;55.76
78888;BME280;68276;49.326;8.690;2023-03-17T07:51:36;99880.59;;;8.01;55.25
78888;BME280;68276;49.326;8.690;2023-03-17T07:54:02;99888.94;;;8.06;55.13
78888;BME280;68276;49.326;8.690;2023-03-17T07:56:31;99889.69;;;8.14;55.06
78888;BME280;68276;49.326;8.690;2023-03-17T07:58:57;99891.41;;;8.30;54.86
78888;BME280;68276;49.326;8.690;2023-03-17T08:01:24;99882.97;;;8.41;54.12
78888;BME280;68276;49.326;8.690;2023-03-17T08:03:50;99888.59;;;8.61;54.44
78888;BME280;68276;49.326;8.690;2023-03-17T08:06:15;99886.75;;;8.61;53.65
78888;BME280;68276;49.326;8.690;2023-03-17T08:08:41;99890.34;;;8.68;53.69
78888;BME280;68276;49.326;8.690;2023-03-17T08:11:06;99888.13;;;8.57;53.68
78888;BME280;68276;49.326;8.690;2023-03-17T08:13:32;99894.03;;;8.53;54.04
78888;BME280;68276;49.326;8.690;2023-03-17T08:15:58;99889.72;;;8.52;53.85
78888;BME280;68276;49.326;8.690;2023-03-17T08:18:24;99894.94;;;8.45;54.28
78888;BME280;68276;49.326;8.690;2023-03-17T08:20:50;99885.63;;;8.56;54.16
78888;BME280;68276;49.326;8.690;2023-03-17T08:23:19;99888.97;;;8.58;53.83
78888;BME280;68276;49.326;8.690;2023-03-17T08:25:45;99894.41;;;8.64;54.40
78888;BME280;68276;49.326;8.690;2023-03-17T08:28:12;99895.81;;;8.75;53.81
78888;BME280;68276;49.326;8.690;2023-03-17T08:30:38;99887.44;;;8.78;53.90
78888;BME280;68276;49.326;8.690;2023-03-17T08:33:03;99899.69;;;8.87;53.37
78888;BME280;68276;49.326;8.690;2023-03-17T08:35:29;99900.59;;;8.94;53.47
78888;BME280;68276;49.326;8.690;2023-03-17T08:37:55;99886.56;;;8.92;53.32
78888;BME280;68276;49.326;8.690;2023-03-17T08:40:21;99901.00;;;8.91;53.38
78888;BME280;68276;49.326;8.690;2023-03-17T08:42:47;99894.06;;;8.82;53.51
78888;BME280;68276;49.326;8.690;2023-03-17T08:45:14;99888.88;;;8.80;53.66
78888;BME280;68276;49.326;8.690;2023-03-17T08:47:40;99890.09;;;8.78;53.52
78888;BME280;68276;49.326;8.690;2023-03-17T08:50:09;99898.03;;;8.86;53.85
78888;BME280;68276;49.326;8.690;2023-03-17T08:52:35;99894.78;;;9.05;53.10
78888;BME280;68276;49.326;8.690;2023-03-17T08:55:02;99896.41;;;9.35;52.78
78888;BME280;68276;49.326;8.690;2023-03-17T08:57:27;99890.84;;;9.72;52.31
78888;BME280;68276;49.326;8.690;2023-03-17T08:59:53;99899.47;;;9.89;51.04
78888;BME280;68276;49.326;8.690;2023-03-17T09:02:19;99888.28;;;10.06;50.52
78888;BME280;68276;49.326;8.690;2023-03-17T09:04:44;99890.47;;;10.38;49.53
78888;BME280;68276;49.326;8.690;2023-03-17T09:07:12;99891.66;;;10.64;50.20
78888;BME280;68276;49.326;8.690;2023-03-17T09:09:38;99886.19;;;10.78;48.96
78888;BME280;68276;49.326;8.690;2023-03-17T09:12:05;99890.56;;;10.86;48.83
78888;BME280;68276;49.326;8.690;2023-03-17T09:14:32;99893.91;;;10.88;48.62
78888;BME280;68276;49.326;8.690;2023-03-17T09:16:57;99882.38;;;10.94;48.84
78888;BME280;68276;49.326;8.690;2023-03-17T09:19:23;99877.00;;;11.00;49.05
78888;BME280;68276;49.326;8.690;2023-03-17T09:21:49;99876.28;;;11.19;49.21
78888;BME280;68276;49.326;8.690;2023-03-17T09:24:16;99871.22;;;11.44;47.79
78888;BME280;68276;49.326;8.690;2023-03-17T09:26:42;99863.47;;;11.75;47.03
78888;BME280;68276;49.326;8.690;2023-03-17T09:29:07;99862.03;;;12.05;47.11
78888;BME280;68276;49.326;8.690;2023-03-17T09:31:33;99867.41;;;11.99;47.28
78888;BME280;68276;49.326;8.690;2023-03-17T09:34:01;99864.25;;;11.69;47.97
78888;BME280;68276;49.326;8.690;2023-03-17T09:36:28;99863.38;;;11.62;48.03
78888;BME280;68276;49.326;8.690;2023-03-17T09:38:53;99861.38;;;11.71;48.15
78888;BME280;68276;49.326;8.690;2023-03-17T09:49:16;99846.31;;;12.02;48.18
78888;BME280;68276;49.326;8.690;2023-03-17T09:51:44;99845.91;;;12.12;47.66
78888;BME280;68276;49.326;8.690;2023-03-17T09:54:32;99852.09;;;12.32;46.77
78888;BME280;68276;49.326;8.690;2023-03-17T09:59:37;99841.53;;;12.37;46.85
78888;BME280;68276;49.326;8.690;2023-03-17T10:02:17;99835.53;;;12.41;46.27
78888;BME280;68276;49.326;8.690;2023-03-17T10:04:46;99830.75;;;12.50;45.52
78888;BME280;68276;49.326;8.690;2023-03-17T10:07:16;99844.44;;;12.42;47.07
78888;BME280;68276;49.326;8.690;2023-03-17T10:10:04;99842.16;;;12.45;47.41
78888;BME280;68276;49.326;8.690;2023-03-17T10:12:49;99832.56;;;12.62;46.04
78888;BME280;68276;49.326;8.690;2023-03-17T10:17:57;99831.03;;;13.06;46.72
78888;BME280;68276;49.326;8.690;2023-03-17T10:20:34;99830.69;;;13.33;45.03
78888;BME280;68276;49.326;8.690;2023-03-17T10:23:06;99819.34;;;13.62;44.03
78888;BME280;68276;49.326;8.690;2023-03-17T10:25:38;99822.94;;;13.81;43.61
78888;BME280;68276;49.326;8.690;2023-03-17T10:28:26;99823.69;;;13.95;43.17
78888;BME280;68276;49.326;8.690;2023-03-17T10:30:57;99805.16;;;13.98;42.33
78888;BME280;68276;49.326;8.690;2023-03-17T10:33:25;99805.16;;;13.98;42.07
78888;BME280;68276;49.326;8.690;2023-03-17T10:35:51;99811.78;;;14.02;41.60
78888;BME280;68276;49.326;8.690;2023-03-17T10:38:20;99803.25;;;14.05;40.72
78888;BME280;68276;49.326;8.690;2023-03-17T10:40:59;99808.19;;;14.08;41.47
78888;BME280;68276;49.326;8.690;2023-03-17T10:43:29;99810.09;;;14.32;40.21
78888;BME280;68276;49.326;8.690;2023-03-17T10:46:02;99805.19;;;14.65;40.53
78888;BME280;68276;49.326;8.690;2023-03-17T10:48:29;99800.31;;;14.74;40.57
78888;BME280;68276;49.326;8.690;2023-03-17T10:51:00;99802.28;;;14.85;39.66
78888;BME280;68276;49.326;8.690;2023-03-17T10:53:37;99806.38;;;15.06;39.54
78888;BME280;68276;49.326;8.690;2023-03-17T10:56:10;99798.78;;;14.96;39.12
78888;BME280;68276;49.326;8.690;2023-03-17T10:58:47;99799.78;;;15.02;39.32
78888;BME280;68276;49.326;8.690;2023-03-17T11:01:26;99796.44;;;15.18;39.49
78888;BME280;68276;49.326;8.690;2023-03-17T11:03:52;99797.19;;;15.43;38.25
78888;BME280;68276;49.326;8.690;2023-03-17T11:06:19;99787.44;;;15.53;38.43
78888;BME280;68276;49.326;8.690;2023-03-17T11:08:50;99792.66;;;15.55;38.43
78888;BME280;68276;49.326;8.690;2023-03-17T11:11:31;99797.22;;;15.36;39.15
78888;BME280;68276;49.326;8.690;2023-03-17T11:14:25;99792.56;;;15.61;39.36
78888;BME280;68276;49.326;8.690;2023-03-17T11:16:56;99794.81;;;15.46;40.20
78888;BME280;68276;49.326;8.690;2023-03-17T11:19:36;99784.53;;;15.55;40.40
78888;BME280;68276;49.326;8.690;2023-03-17T11:22:15;99785.91;;;15.87;39.90
78888;BME280;68276;49.326;8.690;2023-03-17T11:24:58;99777.75;;;15.75;39.67
78888;BME280;68276;49.326;8.690;2023-03-17T11:27:34;99776.16;;;15.97;40.67
78888;BME280;68276;49.326;8.690;2023-03-17T11:33:04;99777.31;;;15.49;41.15
78888;BME280;68276;49.326;8.690;2023-03-17T11:35:53;99778.66;;;15.58;41.32
78888;BME280;68276;49.326;8.690;2023-03-17T11:38:26;99770.66;;;15.63;40.51
78888;BME280;68276;49.326;8.690;2023-03-17T11:43:47;99753.03;;;15.95;40.63
78888;BME280;68276;49.326;8.690;2023-03-17T11:46:36;99754.94;;;16.06;40.74
78888;BME280;68276;49.326;8.690;2023-03-17T11:49:16;99750.31;;;15.83;40.85
78888;BME280;68276;49.326;8.690;2023-03-17T11:57:32;99750.81;;;16.61;40.31
78888;BME280;68276;49.326;8.690;2023-03-17T12:00:06;99750.34;;;16.41;40.57
78888;BME280;68276;49.326;8.690;2023-03-17T12:02:44;99746.81;;;16.06;40.73
78888;BME280;68276;49.326;8.690;2023-03-17T12:05:22;99745.41;;;16.15;41.22
78888;BME280;68276;49.326;8.690;2023-03-17T12:07:49;99745.03;;;16.23;41.56
78888;BME280;68276;49.326;8.690;2023-03-17T12:13:19;99735.63;;;16.02;41.41
78888;BME280;68276;49.326;8.690;2023-03-17T12:15:56;99731.47;;;16.00;41.33
78888;BME280;68276;49.326;8.690;2023-03-17T12:21:56;99729.72;;;16.05;41.81
78888;BME280;68276;49.326;8.690;2023-03-17T12:24:09;99723.84;;;16.09;41.52
78888;BME280;68276;49.326;8.690;2023-03-17T12:26:45;99734.22;;;16.23;41.08
78888;BME280;68276;49.326;8.690;2023-03-17T12:29:12;99733.28;;;16.29;41.06
78888;BME280;68276;49.326;8.690;2023-03-17T12:31:46;99733.50;;;16.39;40.91
78888;BME280;68276;49.326;8.690;2023-03-17T12:34:24;99731.53;;;16.46;40.39
78888;BME280;68276;49.326;8.690;2023-03-17T12:36:51;99727.00;;;16.40;40.25
78888;BME280;68276;49.326;8.690;2023-03-17T12:39:45;99729.50;;;16.30;40.94
78888;BME280;68276;49.326;8.690;2023-03-17T12:48:13;99729.97;;;16.50;40.35
78888;BME280;68276;49.326;8.690;2023-03-17T12:51:00;99723.59;;;16.33;40.90
78888;BME280;68276;49.326;8.690;2023-03-17T12:53:39;99721.59;;;16.40;40.80
78888;BME280;68276;49.326;8.690;2023-03-17T12:56:29;99706.88;;;16.36;41.23
78888;BME280;68276;49.326;8.690;2023-03-17T12:59:02;99692.59;;;16.52;40.85
78888;BME280;68276;49.326;8.690;2023-03-17T13:04:49;99688.13;;;16.46;40.79
78888;BME280;68276;49.326;8.690;2023-03-17T13:07:23;99699.09;;;16.51;40.42
78888;BME280;68276;49.326;8.690;2023-03-17T13:17:50;99680.81;;;16.58;40.61
78888;BME280;68276;49.326;8.690;2023-03-17T13:20:19;99682.97;;;16.73;40.45
78888;BME280;68276;49.326;8.690;2023-03-17T13:23:11;99674.78;;;16.56;41.57
78888;BME280;68276;49.326;8.690;2023-03-17T13:33:33;99653.38;;;16.71;41.13
78888;BME280;68276;49.326;8.690;2023-03-17T13:36:31;99648.94;;;16.65;40.99
78888;BME280;68276;49.326;8.690;2023-03-17T13:41:54;99647.50;;;16.74;40.72
78888;BME280;68276;49.326;8.690;2023-03-17T13:50:00;99639.78;;;16.55;41.15
78888;BME280;68276;49.326;8.690;2023-03-17T13:52:32;99636.47;;;16.53;41.74
78888;BME280;68276;49.326;8.690;2023-03-17T13:57:53;99631.19;;;16.46;40.52
78888;BME280;68276;49.326;8.690;2023-03-17T14:00:24;99632.47;;;16.44;40.05
78888;BME280;68276;49.326;8.690;2023-03-17T14:03:02;99627.16;;;16.49;40.29
78888;BME280;68276;49.326;8.690;2023-03-17T14:05:32;99624.34;;;16.55;40.86
78888;BME280;68276;49.326;8.690;2023-03-17T14:10:27;99614.16;;;16.62;40.77
78888;BME280;68276;49.326;8.690;2023-03-17T14:15:44;99605.59;;;16.42;41.38
78888;BME280;68276;49.326;8.690;2023-03-17T14:18:18;99615.59;;;16.42;41.04
78888;BME280;68276;49.326;8.690;2023-03-17T14:20:51;99616.81;;;16.34;41.85
78888;BME280;68276;49.326;8.690;2023-03-17T14:23:17;99616.72;;;16.29;41.64
78888;BME280;68276;49.326;8.690;2023-03-17T14:25:43;99615.84;;;16.40;41.60
78888;BME280;68276;49.326;8.690;2023-03-17T14:28:13;99624.03;;;16.29;42.11
78888;BME280;68276;49.326;8.690;2023-03-17T14:30:50;99618.25;;;16.25;42.32
78888;BME280;68276;49.326;8.690;2023-03-17T14:33:25;99616.63;;;16.24;42.46
78888;BME280;68276;49.326;8.690;2023-03-17T14:35:54;99622.59;;;16.26;42.35
78888;BME280;68276;49.326;8.690;2023-03-17T14:38:26;99625.56;;;16.25;42.46
78888;BME280;68276;49.326;8.690;2023-03-17T14:43:39;99632.88;;;16.13;42.69
78888;BME280;68276;49.326;8.690;2023-03-17T14:48:43;99624.88;;;16.06;43.29
78888;BME280;68276;49.326;8.690;2023-03-17T14:51:30;99617.00;;;16.04;43.12